ダッカ の空港の天気 - METARとTAF

シャージャラル国際空港(ダッカ) ( VGHS / DAC ) - バングラデシュ ダッカ
飛行場実況気象(Metar)
観測時間11/27 15:00 BDT (11/27 09:00 UTC)
風向・風速北西 2m/s
視程4000m
天気現象煙霧
なし
気温29℃
湿度45%
気圧1007hPa
METARVGHS 270900Z 32004KT 4000 HZ NSC 29/16 Q1007 NOSIG
過去の天気等 Google飛行場航空写真 Wunderground天気予報

過去48時間のMETAR

飛行場予報(TAF)
発表時間: 11/27 11:00 BDT (11/27 05:00 UTC)
予報対象時間: 27日12時 BDT ~ 28日18時 BDT
風向・風速北東 3m/s
視程4000m
天気現象煙霧
なし
27日18時 BDT ~ 27日20時 BDT に徐々に
風向・風速静穏
視程3500m
天気現象煙霧
なし
28日4時 BDT ~ 28日6時 BDT に徐々に
風向・風速静穏
視程2500m
天気現象もや
なし
28日10時 BDT ~ 28日12時 BDT に徐々に
風向・風速北北西 3m/s
視程3500m
天気現象煙霧
なし
TAF VGHS 270500Z 2706/2812 04005KT 4000 HZ NSC
BECMG 2712/2714 00000KT 3500 HZ NSC
BECMG 2722/2724 00000KT 2500 BR NSC
BECMG 2804/2806 33006KT 3500 HZ NSC